Time;durP1;ratioP1;P1;durP2;ratioP2;P2;SDS_P1;SDS_P2;PMS_P1;PMS_P2;Temp;Humidity;BMP_temperature;BMP_pressure;BME280_temperature;BME280_humidity;BME280_pressure;Samples;Min_cycle;Max_cycle;Signal;HPM_P1;HPM_P2
2023/05/30 00:01:45;;;;;;;0.00;0.00;;;;;;;10.59;63.20;101545.34;6139108;23;20009;-73
2023/05/30 00:04:11;;;;;;;0.00;0.00;;;;;;;10.54;64.26;101542.50;6119235;23;20006;-74
2023/05/30 00:06:36;;;;;;;0.00;0.00;;;;;;;10.54;64.26;101542.50;6115257;23;20416;-73
2023/05/30 00:09:02;;;;;;;0.00;0.00;;;;;;;10.49;64.52;101539.63;6118262;22;20694;-73
2023/05/30 00:11:28;;;;;;;0.00;0.00;;;;;;;10.45;64.45;101554.84;6273347;22;20055;-74
2023/05/30 00:13:55;;;;;;;0.00;0.00;;;;;;;10.35;64.45;101546.41;6140513;23;20010;-74
2023/05/30 00:16:22;;;;;;;0.00;0.00;;;;;;;10.28;65.21;101551.97;6118923;23;20050;-73
2023/05/30 00:18:47;;;;;;;0.00;0.00;;;;;;;10.24;65.75;101543.41;6242752;22;20025;-74
2023/05/30 00:21:14;;;;;;;0.00;0.00;;;;;;;10.24;65.84;101548.84;6248310;22;20074;-73
2023/05/30 00:23:39;;;;;;;0.00;0.00;;;;;;;10.23;65.83;101552.66;6243166;22;20002;-73
2023/05/30 00:26:08;;;;;;;0.00;0.00;;;;;;;10.19;66.04;101542.44;6143869;23;20017;-74
2023/05/30 00:28:34;;;;;;;0.00;0.00;;;;;;;10.21;66.55;101546.59;6269768;22;20009;-73
2023/05/30 00:31:00;;;;;;;0.00;0.00;;;;;;;10.17;67.03;101553.59;6140214;23;20060;-73
2023/05/30 00:33:26;;;;;;;0.00;0.00;;;;;;;10.13;66.51;101552.41;6221873;23;20005;-73
2023/05/30 00:35:51;;;;;;;0.00;0.00;;;;;;;10.02;66.96;101545.88;6142367;23;20018;-72
2023/05/30 00:38:50;;;;;;;0.00;0.00;;;;;;;9.96;67.42;101557.75;6137057;23;20010;-73
2023/05/30 00:41:16;;;;;;;0.10;0.10;;;;;;;9.90;67.70;101548.56;6267135;22;20002;-73
2023/05/30 00:43:59;;;;;;;0.00;0.00;;;;;;;9.67;67.52;101518.47;6115508;23;20089;-71
2023/05/30 00:46:29;;;;;;;0.00;0.00;;;;;;;9.78;67.90;101548.56;6110716;23;20094;-70
2023/05/30 00:48:56;;;;;;;0.00;0.00;;;;;;;9.76;68.06;101558.03;6091258;23;20014;-71
2023/05/30 00:51:24;;;;;;;0.00;0.00;;;;;;;9.74;68.10;101560.19;6113216;23;20089;-71
2023/05/30 00:53:50;;;;;;;0.00;0.00;;;;;;;9.69;68.29;101568.22;6116001;23;20029;-71
2023/05/30 00:56:15;;;;;;;0.00;0.00;;;;;;;9.65;68.42;101567.00;6090548;23;20332;-71
2023/05/30 00:58:41;;;;;;;0.00;0.00;;;;;;;9.63;68.40;101560.97;6112672;23;20014;-70
2023/05/30 01:01:07;;;;;;;0.00;0.00;;;;;;;9.57;68.95;101547.16;6091544;23;20067;-71
2023/05/30 01:03:34;;;;;;;0.00;0.00;;;;;;;9.52;69.04;101551.63;6062795;23;20006;-72
2023/05/30 01:06:03;;;;;;;0.00;0.00;;;;;;;9.52;69.24;101566.16;6094857;23;20022;-72
2023/05/30 01:08:28;;;;;;;0.00;0.00;;;;;;;9.42;69.99;101561.22;6116672;23;20006;-71
2023/05/30 01:11:09;;;;;;;0.00;0.00;;;;;;;9.42;69.51;101569.41;6094132;23;20093;-71
2023/05/30 01:13:48;;;;;;;0.00;0.00;;;;;;;9.35;69.84;101567.84;6111161;23;20320;-72
2023/05/30 01:16:18;;;;;;;0.00;0.00;;;;;;;9.28;70.09;101567.91;6091066;23;20010;-71
2023/05/30 01:19:26;;;;;;;0.00;0.00;;;;;;;9.19;71.00;101566.56;6086212;23;20082;-71
2023/05/30 01:22:01;;;;;;;0.00;0.00;;;;;;;9.18;71.09;101573.91;6090310;23;20036;-70
2023/05/30 01:24:44;;;;;;;0.00;0.00;;;;;;;9.08;70.86;101579.06;6089639;23;20359;-71
2023/05/30 01:27:24;;;;;;;0.00;0.00;;;;;;;8.98;71.10;101578.78;6111711;23;20092;-72
2023/05/30 01:29:50;;;;;;;0.00;0.00;;;;;;;8.87;71.49;101573.00;6113471;23;20006;-72
2023/05/30 01:32:16;;;;;;;0.00;0.00;;;;;;;8.88;72.01;101573.88;6064649;23;20009;-73
2023/05/30 01:34:42;;;;;;;0.00;0.00;;;;;;;8.90;72.27;101574.47;6085695;23;20328;-71
2023/05/30 01:37:07;;;;;;;0.00;0.00;;;;;;;8.92;72.04;101575.06;6115078;23;20020;-71
2023/05/30 01:39:32;;;;;;;0.00;0.00;;;;;;;8.86;72.29;101565.91;6110916;23;20010;-72
2023/05/30 01:42:08;;;;;;;0.00;0.00;;;;;;;8.86;71.99;101576.81;6071838;22;20021;-72
2023/05/30 01:45:09;;;;;;;0.00;0.00;;;;;;;8.81;72.59;101568.47;6141803;23;20012;-71
2023/05/30 01:47:56;;;;;;;0.00;0.00;;;;;;;8.81;72.89;101576.66;6147366;22;20005;-72
2023/05/30 01:50:29;;;;;;;0.03;0.03;;;;;;;8.72;72.65;101558.94;6142085;23;20006;-72
2023/05/30 01:52:58;;;;;;;0.00;0.00;;;;;;;8.76;72.67;101579.25;6145246;23;20002;-70
2023/05/30 01:55:26;;;;;;;0.00;0.00;;;;;;;8.72;72.46;101575.28;6143015;23;20058;-72
2023/05/30 01:57:53;;;;;;;0.00;0.00;;;;;;;8.66;72.95;101582.47;6144828;23;20006;-71
2023/05/30 02:00:20;;;;;;;0.00;0.00;;;;;;;8.64;72.69;101583.75;6142363;23;20036;-71
2023/05/30 02:02:46;;;;;;;0.00;0.00;;;;;;;8.59;73.16;101575.44;6142902;23;20028;-71
2023/05/30 02:05:12;;;;;;;0.00;0.00;;;;;;;8.60;73.53;101587.97;6269740;22;20801;-72
2023/05/30 02:07:37;;;;;;;0.00;0.00;;;;;;;8.52;72.92;101581.75;6145532;23;20029;-72
2023/05/30 02:10:04;;;;;;;0.00;0.00;;;;;;;8.57;73.28;101589.25;6140878;23;20017;-71
2023/05/30 02:12:29;;;;;;;0.00;0.00;;;;;;;8.49;73.40;101576.75;6143581;23;20092;-71
2023/05/30 02:14:55;;;;;;;0.00;0.00;;;;;;;8.54;73.65;101585.09;6246609;22;20033;-70
2023/05/30 02:17:22;;;;;;;0.00;0.00;;;;;;;8.52;73.66;101581.75;6270223;22;20036;-70
2023/05/30 02:19:50;;;;;;;0.00;0.00;;;;;;;8.55;73.69;101577.75;6145254;23;20024;-71
2023/05/30 02:22:17;;;;;;;0.00;0.00;;;;;;;8.45;73.42;101574.69;6143535;23;20097;-72
2023/05/30 02:24:43;;;;;;;0.00;0.00;;;;;;;8.51;73.12;101596.47;6273793;22;20049;-71
2023/05/30 02:27:09;;;;;;;0.00;0.00;;;;;;;8.44;73.86;101582.06;6141599;23;20002;-71
2023/05/30 02:29:34;;;;;;;0.00;0.00;;;;;;;8.39;73.55;101582.66;6140672;23;20009;-71
2023/05/30 02:32:00;;;;;;;0.00;0.00;;;;;;;8.38;73.90;101585.63;6143477;23;20016;-72
2023/05/30 02:34:26;;;;;;;0.00;0.00;;;;;;;8.41;73.52;101589.78;6140345;23;19994;-71
2023/05/30 02:36:51;;;;;;;0.00;0.00;;;;;;;8.45;73.57;101594.59;6141731;23;20005;-70
2023/05/30 02:39:17;;;;;;;0.00;0.00;;;;;;;8.44;73.96;101589.34;6143156;23;20025;-73
2023/05/30 02:41:42;;;;;;;0.00;0.00;;;;;;;8.43;74.13;101593.97;6268007;22;20006;-71
2023/05/30 02:44:08;;;;;;;0.00;0.00;;;;;;;8.40;74.23;101588.97;6143836;22;20100;-73
2023/05/30 02:46:34;;;;;;;0.00;0.00;;;;;;;8.38;73.89;101586.47;6140369;23;20335;-71
2023/05/30 02:49:01;;;;;;;0.00;0.00;;;;;;;8.45;74.88;101586.44;6116921;23;20468;-72
2023/05/30 02:51:26;;;;;;;0.00;0.00;;;;;;;8.41;74.55;101589.78;6113855;23;20006;-71
2023/05/30 02:53:53;;;;;;;0.00;0.00;;;;;;;8.35;74.88;101586.06;6145898;23;20016;-72
2023/05/30 02:56:19;;;;;;;0.00;0.00;;;;;;;8.39;74.60;101603.66;6144512;23;20371;-73
2023/05/30 02:58:44;;;;;;;0.00;0.00;;;;;;;8.36;74.99;101598.66;6140388;23;20005;-72
2023/05/30 03:01:10;;;;;;;0.00;0.00;;;;;;;8.34;74.54;101595.31;6145188;23;20013;-72
2023/05/30 03:03:35;;;;;;;0.00;0.00;;;;;;;8.29;75.26;101597.88;6270618;22;20093;-71
2023/05/30 03:06:01;;;;;;;0.00;0.00;;;;;;;8.27;75.68;101610.88;6276399;22;20006;-71
2023/05/30 03:08:28;;;;;;;0.00;0.00;;;;;;;8.17;74.98;101601.28;6137859;23;20006;-72
2023/05/30 03:10:54;;;;;;;0.00;0.00;;;;;;;8.13;75.41;101605.53;6144642;23;20012;-71
2023/05/30 03:13:20;;;;;;;0.00;0.00;;;;;;;8.06;75.72;101598.44;6275868;22;20021;-72
2023/05/30 03:15:45;;;;;;;0.00;0.00;;;;;;;7.93;75.79;101599.38;6140736;23;20020;-71
2023/05/30 03:18:11;;;;;;;0.00;0.00;;;;;;;7.93;75.81;101618.44;6144966;23;20005;-72
2023/05/30 03:20:36;;;;;;;0.00;0.00;;;;;;;7.85;76.38;101620.38;6142221;23;20107;-73
2023/05/30 03:23:02;;;;;;;0.00;0.00;;;;;;;7.76;77.03;101618.13;6146434;23;20055;-72
2023/05/30 03:25:28;;;;;;;0.00;0.00;;;;;;;7.72;76.71;101625.06;6141723;23;20051;-72
2023/05/30 03:27:53;;;;;;;0.00;0.00;;;;;;;7.63;77.09;101621.75;6144819;23;20428;-74
2023/05/30 03:30:22;;;;;;;0.00;0.00;;;;;;;7.64;76.33;101623.44;6274740;22;20410;-72
2023/05/30 03:32:48;;;;;;;0.00;0.00;;;;;;;7.59;77.16;101620.53;6141564;23;20009;-72
2023/05/30 03:35:16;;;;;;;0.00;0.00;;;;;;;7.59;76.55;101615.91;6119486;23;20384;-73
2023/05/30 03:37:41;;;;;;;0.00;0.00;;;;;;;7.54;77.30;101614.91;6140913;23;20014;-72
2023/05/30 03:40:08;;;;;;;0.00;0.00;;;;;;;7.49;76.85;101610.94;6143991;23;20005;-72
2023/05/30 03:42:34;;;;;;;0.00;0.00;;;;;;;7.46;77.62;101616.81;6248899;22;20029;-74
2023/05/30 03:45:00;;;;;;;0.00;0.00;;;;;;;7.42;78.25;101612.84;6270907;22;20063;-73
2023/05/30 03:47:26;;;;;;;0.00;0.00;;;;;;;7.45;78.21;101620.59;6145681;23;20020;-72
2023/05/30 03:49:52;;;;;;;0.00;0.00;;;;;;;7.39;77.85;101607.84;6143911;23;20013;-73
2023/05/30 03:52:17;;;;;;;0.00;0.00;;;;;;;7.39;78.16;101616.00;6274749;22;20335;-74
2023/05/30 03:54:44;;;;;;;0.00;0.00;;;;;;;7.38;78.81;101619.78;6144010;23;20005;-73
2023/05/30 03:57:10;;;;;;;0.05;0.05;;;;;;;7.35;77.69;101614.75;6141036;23;20039;-73
2023/05/30 03:59:35;;;;;;;0.00;0.00;;;;;;;7.37;78.51;101615.38;6141052;23;20037;-73
2023/05/30 04:02:01;;;;;;;0.00;0.00;;;;;;;7.41;78.56;101616.63;6146005;23;20013;-73
2023/05/30 04:04:28;;;;;;;0.00;0.00;;;;;;;7.38;78.99;101608.06;6140052;23;20009;-73
2023/05/30 04:06:54;;;;;;;0.00;0.00;;;;;;;7.40;78.84;101620.38;6270565;22;20036;-72
2023/05/30 04:09:19;;;;;;;0.00;0.00;;;;;;;7.42;78.69;101615.56;6269021;22;20104;-72
2023/05/30 04:11:45;;;;;;;0.00;0.00;;;;;;;7.53;79.18;101621.38;6143750;23;20043;-73
2023/05/30 04:14:10;;;;;;;0.00;0.00;;;;;;;7.51;78.96;101614.25;6138146;23;20085;-72
2023/05/30 04:16:36;;;;;;;0.00;0.00;;;;;;;7.59;78.59;101618.63;6143766;23;20025;-72
2023/05/30 04:19:01;;;;;;;0.00;0.00;;;;;;;7.62;78.01;101611.91;6146107;23;20013;-72
2023/05/30 04:21:27;;;;;;;0.00;0.00;;;;;;;7.67;78.14;101606.66;6244377;22;20017;-73
2023/05/30 04:23:52;;;;;;;0.00;0.00;;;;;;;7.73;78.57;101616.69;6120113;23;20024;-72
2023/05/30 04:26:22;;;;;;;0.00;0.00;;;;;;;7.78;78.66;101614.16;6140437;23;20020;-72
2023/05/30 04:28:48;;;;;;;0.00;0.00;;;;;;;7.88;78.01;101621.00;6270983;22;20081;-73
2023/05/30 04:31:14;;;;;;;0.00;0.00;;;;;;;7.91;77.51;101618.66;6268340;22;20032;-73
2023/05/30 04:33:39;;;;;;;0.00;0.00;;;;;;;7.95;77.94;101619.06;6143455;23;20085;-74
2023/05/30 04:36:06;;;;;;;0.00;0.00;;;;;;;7.94;77.98;101607.31;6143889;23;20089;-72
2023/05/30 04:38:34;;;;;;;0.00;0.00;;;;;;;7.99;78.28;101620.31;6139215;23;20033;-74
2023/05/30 04:41:02;;;;;;;0.00;0.00;;;;;;;8.00;78.00;101608.34;6145949;23;20447;-74
2023/05/30 04:43:31;;;;;;;0.00;0.00;;;;;;;8.02;77.65;101606.25;6268509;22;20387;-74
2023/05/30 04:46:00;;;;;;;0.00;0.00;;;;;;;8.03;78.23;101600.56;6143617;23;20079;-70
2023/05/30 04:48:27;;;;;;;0.00;0.00;;;;;;;8.10;77.60;101614.13;6140116;23;20016;-72
2023/05/30 04:50:52;;;;;;;0.00;0.00;;;;;;;8.20;77.42;101622.66;6145605;23;20376;-71
2023/05/30 04:53:20;;;;;;;0.00;0.00;;;;;;;8.31;77.66;101626.56;6144782;23;20013;-71
2023/05/30 04:55:46;;;;;;;0.00;0.00;;;;;;;8.43;76.79;101623.97;6149900;23;20444;-71
2023/05/30 04:58:12;;;;;;;0.00;0.00;;;;;;;8.51;76.64;101621.00;6146543;23;20013;-72
2023/05/30 05:00:38;;;;;;;0.00;0.00;;;;;;;8.61;76.40;101616.91;6138719;23;20013;-71
2023/05/30 05:03:05;;;;;;;0.00;0.00;;;;;;;8.70;76.68;101626.47;6143463;23;20010;-71
2023/05/30 05:05:31;;;;;;;0.00;0.00;;;;;;;8.71;76.14;101631.69;6138825;23;20020;-71
2023/05/30 05:07:56;;;;;;;0.00;0.00;;;;;;;8.74;76.58;101630.44;6145022;23;20013;-70
2023/05/30 05:10:22;;;;;;;0.00;0.00;;;;;;;8.82;76.33;101630.16;6269577;22;20116;-71
2023/05/30 05:12:47;;;;;;;0.00;0.00;;;;;;;8.97;75.94;101631.69;6141551;23;20017;-70
2023/05/30 05:15:14;;;;;;;0.00;0.00;;;;;;;9.06;75.73;101636.59;6142191;22;20423;-72
2023/05/30 05:17:40;;;;;;;0.00;0.00;;;;;;;9.20;75.19;101637.31;6142870;23;20002;-71
2023/05/30 05:20:07;;;;;;;0.00;0.00;;;;;;;9.24;75.03;101634.94;6144849;23;20097;-71
2023/05/30 05:22:33;;;;;;;0.00;0.00;;;;;;;9.31;75.01;101637.59;6139117;23;20017;-70
2023/05/30 05:24:58;;;;;;;0.00;0.00;;;;;;;9.42;74.73;101639.59;6143113;23;20442;-71
2023/05/30 05:27:26;;;;;;;0.00;0.00;;;;;;;9.53;74.37;101635.25;6140733;23;20092;-72
2023/05/30 05:29:51;;;;;;;0.00;0.00;;;;;;;9.67;74.59;101641.38;6144968;23;20051;-70
2023/05/30 05:32:17;;;;;;;0.00;0.00;;;;;;;9.86;73.95;101645.72;6146322;23;20005;-70
2023/05/30 05:34:42;;;;;;;0.00;0.00;;;;;;;10.00;73.16;101645.53;6243479;22;20092;-72
2023/05/30 05:37:08;;;;;;;0.00;0.00;;;;;;;10.10;72.76;101645.81;6141771;23;20028;-73
2023/05/30 05:39:34;;;;;;;0.00;0.00;;;;;;;10.17;71.99;101654.75;6269470;22;20035;-72
2023/05/30 05:42:01;;;;;;;0.00;0.00;;;;;;;10.21;71.81;101647.75;6273520;22;20066;-73
2023/05/30 05:44:27;;;;;;;0.00;0.00;;;;;;;10.22;72.17;101649.41;6137703;23;20328;-71
2023/05/30 05:46:53;;;;;;;0.00;0.00;;;;;;;10.37;72.14;101656.38;6271054;22;20582;-73
2023/05/30 05:49:18;;;;;;;0.00;0.00;;;;;;;10.67;71.46;101658.19;6249437;22;20142;-73
2023/05/30 05:51:44;;;;;;;0.00;0.00;;;;;;;11.02;70.68;101657.38;6139561;23;20010;-73
2023/05/30 05:54:10;;;;;;;0.00;0.00;;;;;;;11.37;69.94;101664.72;6273723;22;20527;-73
2023/05/30 05:56:37;;;;;;;0.00;0.00;;;;;;;11.67;68.56;101670.00;6150319;23;20016;-73
2023/05/30 05:59:03;;;;;;;0.00;0.00;;;;;;;12.02;68.33;101667.16;6268966;22;20013;-73
2023/05/30 06:01:28;;;;;;;0.00;0.00;;;;;;;12.30;66.43;101657.25;6141477;23;20396;-73
2023/05/30 06:03:54;;;;;;;0.00;0.00;;;;;;;12.59;65.66;101670.91;6114116;22;20039;-72
2023/05/30 06:06:19;;;;;;;0.00;0.00;;;;;;;12.82;64.54;101671.78;6142553;23;20013;-74
2023/05/30 06:08:46;;;;;;;0.00;0.00;;;;;;;13.08;64.28;101673.84;6139006;23;20085;-74
2023/05/30 06:11:12;;;;;;;0.00;0.00;;;;;;;13.36;63.29;101679.47;6143051;23;20137;-76
2023/05/30 06:13:37;;;;;;;0.00;0.00;;;;;;;13.38;62.68;101678.13;6142104;23;20436;-73
2023/05/30 06:16:03;;;;;;;0.00;0.00;;;;;;;13.41;61.75;101679.56;6137146;23;20010;-73
2023/05/30 06:18:28;;;;;;;0.00;0.00;;;;;;;13.59;61.60;101678.41;6142472;23;20040;-73
2023/05/30 06:20:53;;;;;;;0.00;0.00;;;;;;;13.78;60.64;101688.00;6265167;22;20017;-74
2023/05/30 06:23:19;;;;;;;0.00;0.00;;;;;;;13.85;60.14;101686.97;6144608;23;20009;-72
2023/05/30 06:25:45;;;;;;;0.00;0.00;;;;;;;13.91;59.42;101691.44;6136647;23;20451;-74
2023/05/30 06:28:10;;;;;;;0.00;0.00;;;;;;;13.84;58.55;101690.78;6244120;22;20097;-75
2023/05/30 06:30:36;;;;;;;0.00;0.00;;;;;;;13.85;57.95;101697.97;6140852;23;20317;-72
2023/05/30 06:33:03;;;;;;;0.00;0.00;;;;;;;13.83;58.21;101700.13;6137418;23;20400;-73
2023/05/30 06:35:28;;;;;;;0.00;0.00;;;;;;;13.95;57.75;101698.06;6141469;23;20001;-72
2023/05/30 06:37:54;;;;;;;0.00;0.00;;;;;;;14.05;57.80;101686.38;6137643;23;20037;-74
2023/05/30 06:40:19;;;;;;;0.00;0.00;;;;;;;14.30;57.14;101691.28;6141134;23;20484;-72
2023/05/30 06:42:45;;;;;;;0.00;0.00;;;;;;;14.25;56.17;101688.47;6130869;23;20415;-75
2023/05/30 06:45:12;;;;;;;0.00;0.00;;;;;;;14.19;56.26;101682.09;6242583;22;20063;-74
2023/05/30 06:47:38;;;;;;;0.00;0.00;;;;;;;14.14;55.98;101682.88;6117365;22;20314;-74
2023/05/30 06:50:04;;;;;;;0.00;0.00;;;;;;;14.17;56.01;101688.97;6113360;23;20120;-76
2023/05/30 06:52:29;;;;;;;0.00;0.00;;;;;;;14.05;55.65;101689.13;6140916;23;20028;-74
2023/05/30 06:54:55;;;;;;;0.00;0.00;;;;;;;14.03;55.80;101677.53;6141628;23;20023;-72
2023/05/30 06:57:20;;;;;;;0.00;0.00;;;;;;;14.01;55.81;101680.53;6266077;22;20037;-74
2023/05/30 06:59:45;;;;;;;0.00;0.00;;;;;;;14.01;55.51;101669.53;6273012;22;20051;-76
2023/05/30 07:02:11;;;;;;;0.00;0.00;;;;;;;13.79;55.31;101667.66;6113153;23;20018;-75
2023/05/30 07:04:36;;;;;;;0.00;0.00;;;;;;;13.52;55.73;101661.25;6274136;22;20010;-76
2023/05/30 07:07:02;;;;;;;0.00;0.00;;;;;;;13.27;55.84;101659.81;6245904;22;20604;-76
2023/05/30 07:09:28;;;;;;;0.00;0.00;;;;;;;13.33;56.63;101683.53;6246343;22;20005;-74
2023/05/30 07:11:53;;;;;;;0.00;0.00;;;;;;;13.30;56.95;101681.28;6117706;23;20321;-75
2023/05/30 07:14:19;;;;;;;0.00;0.00;;;;;;;13.12;57.07;101670.59;6264646;22;20089;-74
2023/05/30 07:16:44;;;;;;;0.00;0.00;;;;;;;13.06;57.57;101664.22;6246699;22;20006;-75
2023/05/30 07:19:10;;;;;;;0.00;0.00;;;;;;;13.19;57.31;101663.03;6136372;22;20017;-75
2023/05/30 07:21:36;;;;;;;0.00;0.00;;;;;;;13.21;57.26;101672.66;6118967;23;20010;-75
2023/05/30 07:24:02;;;;;;;0.00;0.00;;;;;;;13.15;57.48;101667.34;6242083;22;20005;-74
2023/05/30 07:26:27;;;;;;;0.00;0.00;;;;;;;13.20;57.44;101664.66;6143906;23;20013;-74
2023/05/30 07:28:53;;;;;;;0.00;0.00;;;;;;;13.24;57.11;101663.06;6166259;23;20093;-75
2023/05/30 07:31:18;;;;;;;0.00;0.00;;;;;;;13.34;57.54;101670.63;6113619;22;20318;-76
2023/05/30 07:33:44;;;;;;;0.00;0.00;;;;;;;13.63;56.85;101660.31;6247747;22;20058;-75
2023/05/30 07:36:10;;;;;;;0.00;0.00;;;;;;;13.87;55.90;101668.28;6242608;22;20794;-75
2023/05/30 07:38:36;;;;;;;0.00;0.00;;;;;;;14.18;55.45;101676.84;6145897;23;20009;-75
2023/05/30 07:41:01;;;;;;;0.00;0.00;;;;;;;14.29;55.20;101665.72;6271962;22;20010;-74
2023/05/30 07:43:26;;;;;;;0.00;0.00;;;;;;;14.28;55.02;101663.19;6248283;22;20034;-75
2023/05/30 07:45:52;;;;;;;0.00;0.00;;;;;;;14.43;55.07;101668.03;6248423;22;20045;-75
2023/05/30 07:48:18;;;;;;;0.00;0.00;;;;;;;14.93;53.98;101663.22;6245042;22;20432;-75
2023/05/30 07:50:43;;;;;;;0.00;0.00;;;;;;;15.19;52.61;101662.25;6120480;23;20072;-75
2023/05/30 07:53:09;;;;;;;0.00;0.00;;;;;;;15.29;52.34;101666.19;6244951;22;20017;-74
2023/05/30 07:55:34;;;;;;;0.00;0.00;;;;;;;15.56;51.71;101681.75;6265620;22;20013;-75
2023/05/30 07:58:00;;;;;;;0.00;0.00;;;;;;;15.61;51.21;101679.84;6117913;22;20013;-75
2023/05/30 08:00:25;;;;;;;0.00;0.00;;;;;;;15.87;50.91;101683.53;6136941;23;20870;-75
2023/05/30 08:02:51;;;;;;;0.00;0.00;;;;;;;16.01;50.46;101677.50;6143540;23;20416;-75
2023/05/30 08:05:16;;;;;;;0.00;0.00;;;;;;;16.25;50.75;101677.00;6243810;22;20123;-75
2023/05/30 08:07:41;;;;;;;0.00;0.00;;;;;;;16.34;49.59;101675.34;6248164;22;20488;-76
2023/05/30 08:10:07;;;;;;;0.00;0.00;;;;;;;16.50;49.60;101685.31;6221959;23;20424;-76
2023/05/30 08:12:33;;;;;;;0.00;0.00;;;;;;;16.42;49.58;101688.63;6137948;23;20025;-76
2023/05/30 08:14:58;;;;;;;0.00;0.00;;;;;;;16.32;49.44;101670.09;6250053;22;20005;-75
2023/05/30 08:17:25;;;;;;;0.00;0.00;;;;;;;16.14;49.51;101682.50;6117262;23;20317;-76
2023/05/30 08:19:52;;;;;;;0.00;0.00;;;;;;;16.29;50.20;101673.41;6276821;22;20022;-75
2023/05/30 08:22:21;;;;;;;0.00;0.00;;;;;;;16.77;49.31;101662.09;6119402;23;20115;-75
2023/05/30 08:24:54;;;;;;;0.00;0.00;;;;;;;17.49;48.45;101670.25;6246059;22;20005;-76
2023/05/30 08:27:21;;;;;;;0.00;0.00;;;;;;;18.21;47.26;101672.66;6142268;23;20010;-77
2023/05/30 08:29:49;;;;;;;0.00;0.00;;;;;;;18.78;45.13;101669.44;6272037;22;20010;-76
2023/05/30 08:32:16;;;;;;;0.00;0.00;;;;;;;18.94;44.79;101667.38;6143147;23;20564;-75
2023/05/30 08:34:41;;;;;;;0.00;0.00;;;;;;;19.16;43.86;101680.75;6141606;23;20009;-74
2023/05/30 08:37:07;;;;;;;0.00;0.00;;;;;;;18.88;43.66;101668.53;6247657;22;20091;-77
2023/05/30 08:39:33;;;;;;;0.00;0.00;;;;;;;18.92;43.66;101670.44;6141536;23;20013;-75
2023/05/30 08:42:00;;;;;;;0.00;0.00;;;;;;;18.94;43.32;101678.44;6247095;22;20058;-75
2023/05/30 08:44:27;;;;;;;0.00;0.00;;;;;;;18.97;44.42;101677.88;6139098;23;20093;-76
2023/05/30 08:46:53;;;;;;;0.00;0.00;;;;;;;19.14;43.67;101685.75;6142935;23;20005;-76
2023/05/30 08:49:22;;;;;;;0.00;0.00;;;;;;;19.53;43.26;101685.56;6221918;23;20016;-75
2023/05/30 08:51:50;;;;;;;0.00;0.00;;;;;;;19.85;42.54;101691.59;6139386;23;20277;-75
2023/05/30 08:54:19;;;;;;;0.00;0.00;;;;;;;20.12;41.54;101679.84;6119112;23;20377;-75
2023/05/30 08:57:06;;;;;;;0.00;0.00;;;;;;;20.63;41.21;101678.16;6140013;23;20005;-75
2023/05/30 08:59:32;;;;;;;0.00;0.00;;;;;;;21.24;40.00;101684.59;6144727;23;20001;-76
2023/05/30 09:01:58;;;;;;;0.00;0.00;;;;;;;21.41;38.96;101689.56;6139771;23;20128;-74
2023/05/30 09:04:25;;;;;;;0.00;0.00;;;;;;;21.53;38.62;101682.69;6144040;23;20017;-74
2023/05/30 09:06:54;;;;;;;0.00;0.00;;;;;;;21.21;38.51;101670.50;6273499;22;20063;-74
2023/05/30 09:09:21;;;;;;;0.00;0.00;;;;;;;21.01;39.08;101682.81;6140984;23;20040;-75
2023/05/30 09:11:47;;;;;;;0.00;0.00;;;;;;;20.98;39.31;101683.44;6142722;23;20367;-75
2023/05/30 09:14:12;;;;;;;0.00;0.00;;;;;;;20.83;39.41;101690.13;6138203;23;20009;-76
2023/05/30 09:16:38;;;;;;;0.00;0.00;;;;;;;20.66;39.39;101683.19;6274738;22;20013;-75
2023/05/30 09:19:04;;;;;;;0.00;0.00;;;;;;;20.71;39.49;101680.28;6140132;23;20476;-75
2023/05/30 09:21:32;;;;;;;0.00;0.00;;;;;;;20.67;40.34;101684.00;6246901;22;20066;-76
2023/05/30 09:24:07;;;;;;;0.00;0.00;;;;;;;20.34;39.95;101675.59;6218467;23;20021;-75
2023/05/30 09:26:32;;;;;;;0.00;0.00;;;;;;;20.02;40.86;101685.53;6249819;22;20010;-76
2023/05/30 09:29:11;;;;;;;0.00;0.00;;;;;;;19.78;40.99;101680.00;6144637;23;20059;-76
2023/05/30 09:31:37;;;;;;;0.00;0.00;;;;;;;19.69;41.35;101677.06;6119844;23;20016;-76
2023/05/30 09:34:04;;;;;;;0.00;0.00;;;;;;;19.74;41.00;101678.94;6142957;23;20009;-75
2023/05/30 09:36:31;;;;;;;0.00;0.00;;;;;;;19.65;41.45;101673.22;6142599;23;20002;-77
2023/05/30 09:39:04;;;;;;;0.00;0.00;;;;;;;19.62;41.51;101676.59;6270756;22;20018;-76
2023/05/30 09:41:29;;;;;;;0.00;0.00;;;;;;;19.42;41.75;101678.50;6140139;23;20419;-76
2023/05/30 09:43:56;;;;;;;0.00;0.00;;;;;;;19.30;41.83;101681.69;6118643;23;20013;-75
2023/05/30 09:46:26;;;;;;;0.00;0.00;;;;;;;19.14;42.21;101674.66;6138152;23;20013;-76
2023/05/30 09:48:52;;;;;;;0.00;0.00;;;;;;;19.20;42.78;101670.69;6144591;22;20076;-75
2023/05/30 09:51:20;;;;;;;0.00;0.00;;;;;;;19.38;42.74;101676.59;6269227;22;20005;-75
2023/05/30 09:53:55;;;;;;;0.00;0.00;;;;;;;19.68;42.70;101681.78;6143606;23;20085;-75
2023/05/30 09:56:48;;;;;;;0.00;0.00;;;;;;;20.12;41.91;101674.28;6143568;23;20013;-75
2023/05/30 09:59:14;;;;;;;0.00;0.00;;;;;;;22.16;38.12;101685.78;6145510;23;20006;-76
2023/05/30 10:01:44;;;;;;;0.00;0.00;;;;;;;24.49;33.74;101705.00;6272661;22;20074;-76
2023/05/30 10:04:13;;;;;;;0.00;0.00;;;;;;;26.87;29.89;101706.22;6141908;23;20032;-75
2023/05/30 10:06:41;;;;;;;0.00;0.00;;;;;;;28.98;26.87;101701.09;6143545;23;20067;-75
2023/05/30 10:09:11;;;;;;;0.00;0.00;;;;;;;31.23;24.12;101688.66;6138499;23;20009;-75
2023/05/30 10:11:40;;;;;;;0.00;0.00;;;;;;;32.91;22.98;101694.16;6144957;23;20006;-75
2023/05/30 10:14:07;;;;;;;0.00;0.00;;;;;;;34.65;21.01;101682.69;6138336;23;20080;-75
2023/05/30 10:16:35;;;;;;;0.00;0.00;;;;;;;36.27;19.45;101683.31;6145839;23;20071;-76
2023/05/30 10:19:03;;;;;;;0.00;0.00;;;;;;;37.49;18.40;101680.84;6139018;23;20001;-75
2023/05/30 10:21:31;;;;;;;0.00;0.00;;;;;;;38.81;16.86;101682.47;6144040;23;20009;-75
2023/05/30 10:23:57;;;;;;;0.00;0.00;;;;;;;39.72;16.94;101671.88;6140354;23;20013;-75
2023/05/30 10:26:31;;;;;;;0.00;0.00;;;;;;;40.24;16.27;101667.50;6271908;22;20009;-75
2023/05/30 10:28:57;;;;;;;0.00;0.00;;;;;;;41.15;15.47;101671.91;6143777;23;20006;-74
2023/05/30 10:31:24;;;;;;;0.00;0.00;;;;;;;41.64;14.26;101668.16;6216905;23;20020;-75
2023/05/30 10:33:51;;;;;;;0.00;0.00;;;;;;;41.48;14.10;101655.47;6142454;23;20009;-75
2023/05/30 10:36:17;;;;;;;0.00;0.00;;;;;;;41.26;13.94;101654.44;6138912;23;20097;-75
2023/05/30 10:39:03;;;;;;;0.00;0.00;;;;;;;41.56;14.03;101649.53;6167281;23;20373;-76
2023/05/30 10:41:51;;;;;;;0.00;0.00;;;;;;;41.95;13.81;101641.84;6139981;23;20006;-77
2023/05/30 10:44:54;;;;;;;0.00;0.00;;;;;;;42.44;13.34;101644.44;6143617;23;20022;-76
2023/05/30 10:47:27;;;;;;;0.00;0.00;;;;;;;42.96;13.12;101641.50;6144384;23;20322;-76
2023/05/30 10:49:57;;;;;;;0.00;0.00;;;;;;;43.51;12.93;101644.91;6141034;23;19998;-75
2023/05/30 10:52:33;;;;;;;0.00;0.00;;;;;;;44.84;12.23;101638.84;6144315;23;20494;-76
2023/05/30 10:54:58;;;;;;;0.00;0.00;;;;;;;45.69;11.52;101626.06;6144461;23;20065;-76
2023/05/30 10:57:32;;;;;;;0.00;0.00;;;;;;;45.69;10.61;101626.06;6115421;23;20086;-76
2023/05/30 11:00:22;;;;;;;;;;;;;;;45.14;11.10;101631.38;6222432;23;20036;-78
2023/05/30 11:02:55;;;;;;;0.00;0.00;;;;;;;45.26;10.84;101623.84;6138180;23;20246;-78
2023/05/30 11:05:30;;;;;;;0.00;0.00;;;;;;;45.58;10.80;101621.59;6112741;23;20063;-77
2023/05/30 11:07:57;;;;;;;0.00;0.00;;;;;;;45.14;10.64;101614.06;6144136;23;20005;-78
2023/05/30 11:10:27;;;;;;;0.00;0.00;;;;;;;44.88;11.32;101622.22;6140700;23;20039;-77
2023/05/30 11:13:06;;;;;;;0.00;0.00;;;;;;;45.75;10.99;101622.03;6144937;23;20006;-76
2023/05/30 11:15:35;;;;;;;0.00;0.00;;;;;;;46.88;10.64;101621.06;6257089;22;20088;-78
2023/05/30 11:18:01;;;;;;;0.00;0.00;;;;;;;47.21;9.67;101611.47;6144478;23;20014;-76
2023/05/30 11:20:26;;;;;;;0.00;0.00;;;;;;;46.71;9.88;101596.75;6275191;22;20020;-79
2023/05/30 11:23:01;;;;;;;0.00;0.00;;;;;;;46.54;10.40;101602.94;6140288;23;20084;-78
2023/05/30 11:25:29;;;;;;;0.00;0.00;;;;;;;46.88;9.99;101605.78;6144790;23;20005;-79
2023/05/30 11:28:15;;;;;;;0.00;0.00;;;;;;;47.24;9.79;101601.78;6114102;23;20429;-78
2023/05/30 11:30:48;;;;;;;0.00;0.00;;;;;;;47.75;9.52;101607.78;6144856;23;20076;-80
2023/05/30 11:33:16;;;;;;;0.00;0.00;;;;;;;47.72;9.42;101607.47;6119713;23;20005;-77